Time;durP1;ratioP1;P1;durP2;ratioP2;P2;SDS_P1;SDS_P2;PMS_P1;PMS_P2;Temp;Humidity;BMP_temperature;BMP_pressure;BME280_temperature;BME280_humidity;BME280_pressure;Samples;Min_cycle;Max_cycle;Signal;HPM_P1;HPM_P2
2022/08/19 00:01:46;;;;;;;4.30;1.13;;;;;;;15.00;100.00;92141.78;5029712;28;20412;-78
2022/08/19 00:04:14;;;;;;;2.03;1.13;;;;;;;15.02;100.00;92125.63;5031095;28;20048;-77
2022/08/19 00:06:42;;;;;;;1.98;1.20;;;;;;;14.97;100.00;92102.88;5030655;28;20038;-78
2022/08/19 00:09:09;;;;;;;2.03;1.08;;;;;;;14.99;100.00;92100.69;5029761;28;20104;-77
2022/08/19 00:11:36;;;;;;;1.42;1.00;;;;;;;14.99;100.00;92095.41;5031000;28;20088;-78
2022/08/19 00:14:02;;;;;;;1.95;0.95;;;;;;;14.94;100.00;92077.94;5030902;28;20044;-78
2022/08/19 00:16:28;;;;;;;2.55;0.95;;;;;;;14.98;100.00;92093.88;5029599;28;20487;-78
2022/08/19 00:18:55;;;;;;;3.22;1.20;;;;;;;14.94;100.00;92080.56;5030728;28;20041;-78
2022/08/19 00:21:21;;;;;;;1.50;1.10;;;;;;;14.96;100.00;92085.53;5029573;28;20108;-77
2022/08/19 00:23:47;;;;;;;4.95;1.40;;;;;;;14.96;100.00;92093.44;5029966;28;20120;-78
2022/08/19 00:26:12;;;;;;;2.50;1.25;;;;;;;14.93;100.00;92091.44;5033260;28;20563;-78
2022/08/19 00:28:38;;;;;;;3.17;1.30;;;;;;;14.89;100.00;92106.34;5034421;28;20503;-77
2022/08/19 00:31:05;;;;;;;2.65;1.60;;;;;;;14.84;100.00;92109.16;5033275;28;20479;-77
2022/08/19 00:33:34;;;;;;;4.75;1.60;;;;;;;14.76;100.00;92111.53;5034024;28;20029;-78
2022/08/19 00:36:01;;;;;;;2.72;1.38;;;;;;;14.73;100.00;92109.56;5032980;28;20416;-78
2022/08/19 00:38:28;;;;;;;3.90;1.30;;;;;;;14.71;100.00;92101.19;5034302;28;20053;-78
2022/08/19 00:40:54;;;;;;;2.55;1.30;;;;;;;14.69;100.00;92086.81;5034623;28;20116;-78
2022/08/19 00:43:22;;;;;;;4.15;1.20;;;;;;;14.72;100.00;92089.56;5034469;28;20109;-78
2022/08/19 00:45:49;;;;;;;1.98;1.25;;;;;;;14.75;100.00;92106.63;5034318;28;20399;-77
2022/08/19 00:48:16;;;;;;;2.92;1.40;;;;;;;14.75;100.00;92094.22;5016779;28;20041;-78
2022/08/19 00:50:43;;;;;;;3.70;1.40;;;;;;;14.77;100.00;92093.88;5034156;28;20116;-77
2022/08/19 00:53:15;;;;;;;4.63;1.30;;;;;;;14.76;100.00;92094.97;5032974;28;20041;-78
2022/08/19 00:55:42;;;;;;;;;;;;;;;14.75;100.00;92096.06;5033242;28;20037;-78
2022/08/19 00:58:12;;;;;;;3.40;1.00;;;;;;;14.71;100.00;92095.94;5035870;28;19954;-78
2022/08/19 01:00:38;;;;;;;1.27;1.05;;;;;;;14.68;100.00;92086.03;5032849;28;20068;-78
2022/08/19 01:03:11;;;;;;;2.78;1.45;;;;;;;14.64;100.00;92082.50;5033865;28;20060;-78
2022/08/19 01:05:37;;;;;;;4.63;1.17;;;;;;;14.63;100.00;92088.09;5033737;28;20399;-77
2022/08/19 01:08:05;;;;;;;2.35;1.40;;;;;;;14.58;100.00;92100.34;5032305;28;20033;-78
2022/08/19 01:10:39;;;;;;;3.78;1.08;;;;;;;14.61;100.00;92111.34;5032524;28;20037;-78
2022/08/19 01:13:04;;;;;;;7.32;1.20;;;;;;;14.62;100.00;92116.28;5033774;28;20516;-78
2022/08/19 01:15:34;;;;;;;1.85;1.08;;;;;;;14.61;100.00;92098.16;5032315;28;20045;-78
2022/08/19 01:18:04;;;;;;;7.55;1.48;;;;;;;14.63;100.00;92094.13;5033551;28;20041;-77
2022/08/19 01:20:29;;;;;;;2.83;1.20;;;;;;;14.62;100.00;92089.19;5032557;28;20126;-78
2022/08/19 01:22:58;;;;;;;3.22;1.17;;;;;;;14.58;100.00;92081.16;5033673;28;20080;-78
2022/08/19 01:25:40;;;;;;;1.73;1.00;;;;;;;14.54;100.00;92088.09;5033908;28;20142;-78
2022/08/19 01:28:06;;;;;;;4.53;1.15;;;;;;;14.55;100.00;92092.31;5033670;28;20045;-78
2022/08/19 01:30:34;;;;;;;4.93;1.38;;;;;;;14.54;100.00;92088.09;5034022;28;20029;-78
2022/08/19 01:33:01;;;;;;;1.55;1.10;;;;;;;14.50;100.00;92081.94;5033865;28;20029;-78
2022/08/19 01:35:32;;;;;;;3.33;1.30;;;;;;;14.45;100.00;92077.63;5031247;28;20037;-78
2022/08/19 01:38:01;;;;;;;3.13;1.15;;;;;;;14.44;100.00;92075.31;5033348;28;20035;-78
2022/08/19 01:40:31;;;;;;;3.63;1.20;;;;;;;14.43;100.00;92061.38;5033656;28;20033;-78
2022/08/19 01:42:57;;;;;;;2.13;1.23;;;;;;;14.41;100.00;92062.78;5033873;28;20034;-78
2022/08/19 01:45:25;;;;;;;3.55;1.40;;;;;;;14.37;100.00;92060.03;5015849;28;20414;-78
2022/08/19 01:47:51;;;;;;;4.50;1.23;;;;;;;14.34;100.00;92066.72;5031917;28;20048;-78
2022/08/19 01:50:17;;;;;;;1.60;1.13;;;;;;;14.40;100.00;92069.16;5033115;28;20029;-78
2022/08/19 01:52:44;;;;;;;1.73;1.00;;;;;;;14.31;100.00;92059.44;5032875;28;20124;-78
2022/08/19 01:55:14;;;;;;;1.60;1.10;;;;;;;14.30;100.00;92063.16;5032212;28;20052;-78
2022/08/19 01:57:42;;;;;;;3.13;1.30;;;;;;;14.27;100.00;92050.63;5031798;28;20108;-78
2022/08/19 02:00:11;;;;;;;1.58;1.17;;;;;;;14.25;100.00;92052.84;5031722;28;20092;-78
2022/08/19 02:02:37;;;;;;;2.47;1.20;;;;;;;14.23;100.00;92043.69;5033011;28;20029;-78
2022/08/19 02:05:03;;;;;;;4.60;1.30;;;;;;;14.22;100.00;92047.41;5033279;28;20127;-78
2022/08/19 02:07:29;;;;;;;1.52;0.95;;;;;;;14.21;100.00;92051.13;5031554;28;20033;-78
2022/08/19 02:09:55;;;;;;;2.53;1.20;;;;;;;14.15;100.00;92046.06;5032519;28;20529;-78
2022/08/19 02:12:21;;;;;;;2.10;1.30;;;;;;;14.16;100.00;92055.50;5031377;28;20029;-78
2022/08/19 02:14:47;;;;;;;2.65;1.05;;;;;;;14.18;100.00;92060.44;5032476;28;20048;-77
2022/08/19 02:17:13;;;;;;;3.33;1.23;;;;;;;14.24;100.00;92061.03;5032845;28;20065;-78
2022/08/19 02:19:38;;;;;;;4.30;1.17;;;;;;;14.17;100.00;92056.28;5031136;28;20041;-78
2022/08/19 02:22:04;;;;;;;3.60;1.38;;;;;;;14.15;100.00;92047.91;5033013;28;20446;-78
2022/08/19 02:24:29;;;;;;;2.67;1.10;;;;;;;14.15;100.00;92048.69;5032508;28;20044;-77
2022/08/19 02:26:55;;;;;;;3.00;1.17;;;;;;;14.12;100.00;92049.34;5031603;28;20064;-78
2022/08/19 02:29:21;;;;;;;2.58;1.38;;;;;;;14.12;100.00;92043.31;5030810;28;20342;-77
2022/08/19 02:31:47;;;;;;;2.03;1.10;;;;;;;14.10;100.00;92051.50;5031110;28;20047;-78
2022/08/19 02:34:12;;;;;;;2.45;1.05;;;;;;;14.10;100.00;92054.13;5032807;28;20033;-78
2022/08/19 02:36:38;;;;;;;1.58;1.00;;;;;;;14.09;100.00;92044.69;5032294;28;20029;-78
2022/08/19 02:39:03;;;;;;;1.80;1.10;;;;;;;14.10;100.00;92040.97;5031331;28;20041;-77
2022/08/19 02:41:32;;;;;;;1.90;1.10;;;;;;;14.04;100.00;92036.97;5032346;28;20060;-77
2022/08/19 02:44:00;;;;;;;2.80;1.08;;;;;;;13.97;100.00;92025.41;5032679;28;20029;-77
2022/08/19 02:46:29;;;;;;;2.47;1.08;;;;;;;14.03;100.00;92024.94;5031005;28;20033;-77
2022/08/19 02:48:59;;;;;;;2.35;1.20;;;;;;;14.02;100.00;92025.22;5030894;28;20037;-77
2022/08/19 02:51:30;;;;;;;1.45;1.00;;;;;;;13.97;100.00;92022.78;5031999;28;20030;-77
2022/08/19 02:53:56;;;;;;;1.23;1.10;;;;;;;13.94;100.00;92037.34;5030778;28;20068;-77
2022/08/19 02:56:23;;;;;;;2.03;1.10;;;;;;;13.93;100.00;92031.28;5031734;28;20054;-77
2022/08/19 02:58:49;;;;;;;2.50;1.35;;;;;;;13.97;100.00;92028.81;5030462;28;20034;-78
2022/08/19 03:01:45;;;;;;;2.13;1.27;;;;;;;13.97;100.00;92013.03;5046065;28;20472;-77
2022/08/19 03:04:13;;;;;;;2.17;1.10;;;;;;;13.93;100.00;92006.84;5031385;28;20080;-77
2022/08/19 03:06:41;;;;;;;2.22;1.27;;;;;;;13.93;100.00;92005.00;5033911;28;20143;-77
2022/08/19 03:09:07;;;;;;;4.35;1.30;;;;;;;13.90;100.00;92000.38;5051725;28;20076;-77
2022/08/19 03:11:33;;;;;;;2.25;1.20;;;;;;;13.89;100.00;91998.84;5033722;28;20111;-77
2022/08/19 03:13:59;;;;;;;2.17;1.20;;;;;;;13.84;100.00;92009.53;5033501;28;20040;-77
2022/08/19 03:16:28;;;;;;;4.97;1.30;;;;;;;13.82;100.00;92003.03;5051187;28;20032;-77
2022/08/19 03:18:55;;;;;;;2.45;1.38;;;;;;;13.84;100.00;92006.91;5051365;28;20044;-78
2022/08/19 03:21:26;;;;;;;4.20;1.67;;;;;;;13.83;100.00;92001.97;5033614;28;20495;-77
2022/08/19 03:23:55;;;;;;;2.28;1.20;;;;;;;13.82;100.00;92001.19;5033473;28;20135;-77
2022/08/19 03:26:21;;;;;;;2.22;1.20;;;;;;;13.78;100.00;92002.13;5051289;28;20029;-77
2022/08/19 03:28:49;;;;;;;5.15;1.30;;;;;;;13.70;100.00;92007.13;5051178;28;20148;-77
2022/08/19 03:31:17;;;;;;;1.48;1.10;;;;;;;13.71;100.00;92007.88;5051288;28;20402;-77
2022/08/19 03:33:43;;;;;;;1.63;1.15;;;;;;;13.70;100.00;92003.72;5033571;28;20094;-77
2022/08/19 03:36:15;;;;;;;3.03;1.10;;;;;;;13.68;100.00;92000.63;5051206;28;20128;-78
2022/08/19 03:38:48;;;;;;;1.85;0.88;;;;;;;13.66;100.00;91994.91;5051294;28;20486;-77
2022/08/19 03:41:17;;;;;;;2.10;1.10;;;;;;;13.67;100.00;92007.00;5033521;28;20044;-78
2022/08/19 03:43:46;;;;;;;2.55;1.23;;;;;;;13.64;100.00;92002.34;5051001;28;20077;-78
2022/08/19 03:46:14;;;;;;;6.10;1.30;;;;;;;13.64;100.00;92018.91;5032858;28;20089;-78
2022/08/19 03:48:41;;;;;;;2.80;1.20;;;;;;;13.62;100.00;92017.66;5032996;28;20041;-77
2022/08/19 03:51:16;;;;;;;3.33;1.08;;;;;;;13.58;100.00;92019.38;5051021;28;20108;-78
2022/08/19 03:53:41;;;;;;;1.42;1.00;;;;;;;13.59;100.00;92026.97;5051264;28;20029;-77
2022/08/19 03:56:10;;;;;;;1.63;1.15;;;;;;;13.57;100.00;92017.84;5051509;28;20036;-77
2022/08/19 03:58:37;;;;;;;1.63;1.10;;;;;;;13.57;100.00;92020.47;5051406;28;20036;-77
2022/08/19 04:01:10;;;;;;;2.10;1.20;;;;;;;13.57;100.00;92038.88;5054761;28;20203;-77
2022/08/19 04:03:36;;;;;;;2.28;1.38;;;;;;;13.64;100.00;92039.16;5037049;28;20254;-77
2022/08/19 04:06:14;;;;;;;5.78;1.08;;;;;;;13.67;100.00;92041.94;5054896;28;20111;-77
2022/08/19 04:08:44;;;;;;;2.83;1.20;;;;;;;13.62;100.00;92042.13;5036827;28;20379;-77
2022/08/19 04:11:14;;;;;;;2.45;1.15;;;;;;;13.63;100.00;92048.16;5054727;28;20123;-77
2022/08/19 04:13:40;;;;;;;1.95;1.13;;;;;;;13.62;100.00;92051.84;5020593;28;20401;-77
2022/08/19 04:16:06;;;;;;;4.25;1.40;;;;;;;13.61;100.00;92051.09;5037059;28;20112;-77
2022/08/19 04:18:33;;;;;;;3.55;1.42;;;;;;;13.59;100.00;92058.53;5037097;28;20037;-77
2022/08/19 04:21:00;;;;;;;3.20;1.10;;;;;;;13.51;100.00;92054.09;5037135;28;20116;-77
2022/08/19 04:23:27;;;;;;;3.30;1.27;;;;;;;13.54;100.00;92066.59;5055094;28;20386;-78
2022/08/19 04:25:54;;;;;;;2.45;0.90;;;;;;;13.52;100.00;92064.25;5054800;28;20439;-77
2022/08/19 04:28:20;;;;;;;1.50;1.00;;;;;;;13.51;100.00;92065.38;5021947;28;20513;-78
2022/08/19 04:30:49;;;;;;;1.50;1.00;;;;;;;13.49;100.00;92064.91;5039394;28;20029;-77
2022/08/19 04:33:18;;;;;;;2.83;1.10;;;;;;;13.51;100.00;92065.38;5037672;28;20035;-78
2022/08/19 04:35:48;;;;;;;2.25;1.10;;;;;;;13.50;100.00;92082.22;5036438;28;20041;-77
2022/08/19 04:38:15;;;;;;;1.73;1.13;;;;;;;13.49;100.00;92093.06;5036302;28;20131;-77
2022/08/19 04:43:28;;;;;;;1.30;0.85;;;;;;;13.50;100.00;92092.72;5055529;28;20040;-80
2022/08/19 04:45:55;;;;;;;2.30;1.17;;;;;;;13.52;100.00;92085.31;5051394;28;20075;-77
2022/08/19 04:48:25;;;;;;;1.50;0.90;;;;;;;13.53;100.00;92089.50;5028574;28;20055;-77
2022/08/19 04:51:00;;;;;;;1.15;0.90;;;;;;;13.54;100.00;92091.03;5034019;28;20124;-77
2022/08/19 04:53:29;;;;;;;3.45;1.10;;;;;;;13.57;100.00;92091.47;5050618;28;20124;-76
2022/08/19 04:56:00;;;;;;;2.80;1.05;;;;;;;13.59;100.00;92092.72;5055461;28;20032;-77
2022/08/19 04:58:27;;;;;;;1.95;1.13;;;;;;;13.60;100.00;92093.47;5035028;28;20254;-77
2022/08/19 05:00:53;;;;;;;2.20;1.05;;;;;;;13.64;100.00;92086.50;5014362;28;20045;-77
2022/08/19 05:03:20;;;;;;;1.27;0.90;;;;;;;13.68;100.00;92092.69;5030687;28;20075;-77
2022/08/19 05:05:50;;;;;;;3.70;1.30;;;;;;;13.70;100.00;92090.53;5027985;28;20029;-77
2022/08/19 05:08:22;;;;;;;2.15;1.23;;;;;;;13.74;100.00;92086.19;5018875;28;20037;-76
2022/08/19 05:10:49;;;;;;;2.00;1.17;;;;;;;13.76;100.00;92076.13;5030578;28;20033;-77
2022/08/19 05:13:17;;;;;;;2.58;1.27;;;;;;;13.82;100.00;92079.34;5032339;28;20037;-76
2022/08/19 05:15:43;;;;;;;1.63;1.10;;;;;;;13.86;100.00;92073.13;5032018;28;20083;-77
2022/08/19 05:23:40;;;;;;;4.00;1.20;;;;;;;14.11;100.00;92078.59;5027033;28;20072;-78
2022/08/19 05:26:06;;;;;;;2.38;1.13;;;;;;;14.20;100.00;92084.59;5008646;28;20034;-76
2022/08/19 05:28:32;;;;;;;2.03;1.10;;;;;;;14.34;100.00;92086.97;5023357;28;20052;-75
2022/08/19 05:30:58;;;;;;;1.45;1.10;;;;;;;14.40;100.00;92084.94;5009155;28;20033;-76
2022/08/19 05:33:24;;;;;;;3.85;1.30;;;;;;;14.47;100.00;92087.84;5027658;28;20037;-75
2022/08/19 05:35:50;;;;;;;2.20;1.20;;;;;;;14.49;100.00;92077.78;5026733;28;20380;-73
2022/08/19 05:38:17;;;;;;;1.90;1.17;;;;;;;14.52;100.00;92077.13;5012397;28;20030;-77
2022/08/19 05:40:46;;;;;;;3.13;2.13;;;;;;;14.57;100.00;92080.38;5031920;28;20113;-77
2022/08/19 05:43:15;;;;;;;2.47;1.30;;;;;;;14.64;100.00;92085.13;5033601;28;20454;-77
2022/08/19 05:45:42;;;;;;;5.07;1.30;;;;;;;14.81;100.00;92086.88;5032726;28;20033;-77
2022/08/19 05:48:10;;;;;;;2.40;1.30;;;;;;;14.82;100.00;92088.44;5031321;28;20483;-77
2022/08/19 05:50:38;;;;;;;2.17;1.20;;;;;;;14.92;100.00;92100.44;5014426;28;20048;-77
2022/08/19 05:53:04;;;;;;;4.20;1.42;;;;;;;14.97;100.00;92097.59;5011385;28;20037;-77
2022/08/19 05:55:31;;;;;;;2.30;1.20;;;;;;;15.01;100.00;92093.22;5012955;28;20032;-77
2022/08/19 05:57:56;;;;;;;4.00;1.20;;;;;;;15.05;100.00;92093.38;5012314;28;20042;-77
2022/08/19 06:00:23;;;;;;;7.47;2.03;;;;;;;15.09;100.00;92097.66;5020919;28;20103;-77
2022/08/19 06:02:48;;;;;;;3.35;1.20;;;;;;;15.14;100.00;92096.69;5031254;28;20380;-77
2022/08/19 06:05:14;;;;;;;2.65;1.30;;;;;;;15.17;100.00;92104.72;5014215;28;20049;-77
2022/08/19 06:07:40;;;;;;;3.58;1.25;;;;;;;15.20;100.00;92100.69;5033603;28;20041;-78
2022/08/19 06:10:09;;;;;;;3.95;1.55;;;;;;;15.25;100.00;92103.13;5032101;28;20061;-77
2022/08/19 06:12:35;;;;;;;4.68;1.08;;;;;;;15.31;100.00;92122.13;5032195;28;20373;-77
2022/08/19 06:15:13;;;;;;;4.68;1.25;;;;;;;15.38;100.00;92125.03;5031495;28;20064;-78
2022/08/19 06:17:38;;;;;;;4.00;1.33;;;;;;;15.55;100.00;92122.22;5032638;28;20127;-77
2022/08/19 06:20:08;;;;;;;3.20;0.93;;;;;;;15.74;99.96;92134.19;5033151;28;20083;-77
2022/08/19 06:22:51;;;;;;;4.40;1.30;;;;;;;16.21;99.27;92134.59;5030142;28;20041;-78
2022/08/19 06:25:17;;;;;;;3.00;1.35;;;;;;;16.80;95.30;92124.72;5017651;28;20037;-78
2022/08/19 06:27:44;;;;;;;2.88;1.17;;;;;;;17.45;90.67;92151.09;5024747;28;20025;-78
2022/08/19 06:30:12;;;;;;;3.45;1.20;;;;;;;18.20;89.33;92161.03;5035117;28;20033;-78
2022/08/19 06:32:37;;;;;;;1.48;0.90;;;;;;;18.99;78.97;92162.88;5029406;28;20073;-77
2022/08/19 06:35:04;;;;;;;3.13;1.02;;;;;;;19.27;78.30;92156.63;5034431;28;20094;-78
2022/08/19 06:37:30;;;;;;;2.38;1.30;;;;;;;19.19;83.27;92171.66;5029758;28;20026;-78
2022/08/19 06:39:55;;;;;;;8.18;1.90;;;;;;;18.39;88.31;92178.88;5032926;28;20422;-77
2022/08/19 06:42:21;;;;;;;11.65;1.90;;;;;;;17.69;92.87;92185.41;5029021;28;20069;-77
2022/08/19 06:44:48;;;;;;;3.85;1.73;;;;;;;17.69;92.12;92185.41;5022178;28;20056;-76
2022/08/19 06:47:16;;;;;;;6.28;1.40;;;;;;;17.98;87.30;92196.03;5030534;28;20041;-77
2022/08/19 06:49:42;;;;;;;3.30;1.50;;;;;;;18.43;89.25;92197.53;5026946;28;20124;-77
2022/08/19 06:52:11;;;;;;;4.97;1.70;;;;;;;18.62;87.10;92187.03;5024903;28;20037;-77
2022/08/19 06:54:37;;;;;;;3.42;1.40;;;;;;;19.25;87.71;92190.69;5023055;28;20399;-77
2022/08/19 06:57:03;;;;;;;4.07;1.50;;;;;;;19.50;84.77;92185.94;5020807;28;20117;-78
2022/08/19 06:59:32;;;;;;;1.88;1.20;;;;;;;19.56;81.14;92182.63;5022244;28;20033;-78
2022/08/19 07:01:59;;;;;;;5.72;1.40;;;;;;;19.68;78.00;92187.06;5038154;28;20053;-78
2022/08/19 07:04:28;;;;;;;3.03;1.40;;;;;;;19.75;80.51;92197.84;5048718;28;20056;-78
2022/08/19 07:07:12;;;;;;;3.65;1.23;;;;;;;19.59;79.77;92199.78;5054158;28;20024;-79
2022/08/19 07:09:41;;;;;;;4.43;1.35;;;;;;;19.86;79.68;92198.06;5046351;28;20083;-77
2022/08/19 07:12:09;;;;;;;3.50;1.40;;;;;;;19.74;76.44;92193.63;5035522;28;20021;-77
2022/08/19 07:14:37;;;;;;;3.80;1.50;;;;;;;19.50;78.29;92191.25;5051694;28;20052;-80
2022/08/19 07:17:08;;;;;;;2.28;1.20;;;;;;;19.54;77.91;92192.06;5000244;28;20033;-78
2022/08/19 07:20:07;;;;;;;2.25;1.23;;;;;;;19.14;80.62;92185.19;5033442;28;20037;-77
2022/08/19 07:22:33;;;;;;;2.50;1.20;;;;;;;18.92;82.52;92187.34;5033370;28;20061;-77
2022/08/19 07:25:18;;;;;;;3.83;1.40;;;;;;;18.96;82.15;92190.09;5033193;28;20080;-78
2022/08/19 07:27:44;;;;;;;4.35;1.50;;;;;;;19.03;82.93;92187.59;5015237;28;20038;-78
2022/08/19 07:30:11;;;;;;;4.85;1.60;;;;;;;19.10;80.61;92185.09;4999223;28;20411;-77
2022/08/19 07:32:37;;;;;;;3.85;1.60;;;;;;;19.16;81.99;92182.94;4999127;28;20036;-78
2022/08/19 07:35:03;;;;;;;6.15;1.73;;;;;;;19.23;81.44;92190.28;5015569;28;20491;-77
2022/08/19 07:37:28;;;;;;;6.40;1.65;;;;;;;19.33;81.64;92189.75;5015510;28;20037;-78
2022/08/19 07:43:25;;;;;;;4.07;1.88;;;;;;;19.32;81.45;92194.28;5033253;28;20033;-77
2022/08/19 07:45:56;;;;;;;4.38;1.80;;;;;;;19.35;82.00;92190.94;5032896;28;20065;-78
2022/08/19 07:51:55;;;;;;;4.22;2.05;;;;;;;19.31;79.57;92182.13;5015323;28;20089;-77
2022/08/19 07:54:23;;;;;;;7.70;2.40;;;;;;;19.25;80.51;92196.81;5032777;28;20029;-77
2022/08/19 08:00:58;;;;;;;5.88;2.10;;;;;;;19.05;81.37;92192.53;5032826;28;20057;-77
2022/08/19 08:09:10;;;;;;;4.50;2.45;;;;;;;19.13;80.72;92202.22;5032854;28;20038;-77
2022/08/19 08:09:59;;;;;;;7.28;2.50;;;;;;;18.89;81.29;92211.94;5032616;28;20048;-77
2022/08/19 08:15:47;;;;;;;5.68;2.20;;;;;;;18.66;86.72;92214.38;5032620;28;20045;-78
2022/08/19 08:18:13;;;;;;;5.70;2.50;;;;;;;18.70;84.45;92206.50;5014940;28;20483;-77
2022/08/19 08:24:33;;;;;;;7.57;2.50;;;;;;;18.70;85.06;92217.13;5032880;28;20491;-78
2022/08/19 08:27:00;;;;;;;7.47;2.50;;;;;;;18.83;85.82;92217.84;5014612;28;20407;-78
2022/08/19 08:29:29;;;;;;;4.75;1.98;;;;;;;18.93;87.78;92204.03;5014266;28;20061;-78
2022/08/19 08:31:55;;;;;;;7.65;2.30;;;;;;;18.95;87.43;92209.00;5014336;28;20063;-77
2022/08/19 08:37:49;;;;;;;5.43;2.15;;;;;;;19.00;87.20;92222.00;5014394;28;20041;-77
2022/08/19 08:40:27;;;;;;;7.97;2.58;;;;;;;19.15;86.52;92229.16;5031984;28;20034;-78
2022/08/19 08:50:12;;;;;;;7.03;2.20;;;;;;;18.92;82.64;92242.28;4939719;29;20047;-77
2022/08/19 08:53:00;;;;;;;4.47;2.70;;;;;;;18.66;92.02;92246.19;4939264;29;20416;-77
2022/08/19 08:55:29;;;;;;;5.22;2.95;;;;;;;18.36;94.86;92243.16;5028807;28;20515;-77
2022/08/19 08:58:06;;;;;;;4.82;2.50;;;;;;;18.36;94.57;92251.13;5017416;28;20037;-77
2022/08/19 09:00:36;;;;;;;6.35;2.80;;;;;;;18.58;95.30;92260.38;5032067;28;20041;-77
2022/08/19 09:03:19;;;;;;;4.78;2.22;;;;;;;18.93;88.84;92262.38;5035847;28;20036;-77
2022/08/19 09:06:24;;;;;;;5.28;2.10;;;;;;;19.11;84.87;92279.47;5017621;28;20103;-77
2022/08/19 09:09:19;;;;;;;5.03;2.33;;;;;;;18.82;86.02;92283.34;5001113;28;20034;-78
2022/08/19 09:12:05;;;;;;;8.95;3.42;;;;;;;18.88;92.28;92279.31;5035321;28;20059;-77
2022/08/19 09:14:40;;;;;;;6.50;2.80;;;;;;;18.81;93.75;92273.09;5034921;28;20041;-77
2022/08/19 09:17:08;;;;;;;5.60;2.30;;;;;;;18.60;90.87;92265.31;5034843;28;20087;-78
2022/08/19 09:22:58;;;;;;;4.65;2.50;;;;;;;19.14;89.21;92265.53;5017149;28;20099;-77
2022/08/19 09:25:24;;;;;;;6.00;2.95;;;;;;;18.92;92.04;92274.88;5035121;28;20029;-77
2022/08/19 09:28:11;;;;;;;6.47;3.00;;;;;;;18.96;92.32;92279.47;5017336;28;20017;-77
2022/08/19 09:30:40;;;;;;;6.97;2.03;;;;;;;19.13;89.56;92279.13;5034857;28;20457;-77
2022/08/19 09:33:07;;;;;;;5.10;2.15;;;;;;;19.25;85.70;92275.63;5034892;28;20036;-77
2022/08/19 09:35:36;;;;;;;5.05;2.30;;;;;;;19.44;85.40;92277.56;5034454;28;20479;-77
2022/08/19 09:38:02;;;;;;;4.47;1.90;;;;;;;19.54;84.02;92269.84;5017563;28;20098;-77
2022/08/19 09:40:29;;;;;;;5.53;2.13;;;;;;;19.60;81.67;92275.63;5017040;28;20030;-77
2022/08/19 09:46:30;;;;;;;6.38;2.00;;;;;;;19.64;80.36;92273.84;5034532;28;20086;-78
2022/08/19 09:48:58;;;;;;;3.92;1.77;;;;;;;19.48;81.41;92267.81;5034327;28;20511;-78
2022/08/19 09:55:18;;;;;;;4.03;2.10;;;;;;;19.03;87.43;92274.38;5035077;28;20040;-77
2022/08/19 09:58:03;;;;;;;5.13;2.78;;;;;;;18.76;91.52;92273.31;5015635;28;20045;-77
2022/08/19 10:01:07;;;;;;;10.60;2.63;;;;;;;18.79;91.08;92278.72;5034111;28;20499;-77
2022/08/19 10:03:35;;;;;;;6.47;2.20;;;;;;;18.87;90.80;92279.69;5016832;28;20071;-77
2022/08/19 10:06:03;;;;;;;4.13;1.83;;;;;;;19.03;89.41;92279.69;5034231;28;20430;-78
2022/08/19 10:09:07;;;;;;;4.93;1.80;;;;;;;19.09;86.53;92278.28;5033860;28;20033;-78
2022/08/19 10:11:34;;;;;;;8.75;2.00;;;;;;;19.18;86.41;92283.41;5034019;28;20541;-78
2022/08/19 10:14:05;;;;;;;4.38;2.10;;;;;;;19.24;85.78;92279.41;5016216;28;20128;-77
2022/08/19 10:16:31;;;;;;;4.75;2.00;;;;;;;19.29;85.68;92287.84;4984000;28;20033;-77
2022/08/19 10:18:57;;;;;;;4.72;1.90;;;;;;;19.32;86.25;92281.88;5032671;28;20702;-77
2022/08/19 10:21:30;;;;;;;7.35;2.35;;;;;;;19.33;84.94;92278.09;4998660;28;20052;-78
2022/08/19 10:23:59;;;;;;;5.50;3.17;;;;;;;19.20;88.89;92279.31;5032485;28;20048;-78
2022/08/19 10:26:31;;;;;;;9.90;2.83;;;;;;;18.95;93.66;92276.06;5035484;28;20063;-80
2022/08/19 10:28:57;;;;;;;8.60;2.75;;;;;;;18.76;95.44;92275.97;5037660;28;20076;-81
2022/08/19 10:31:29;;;;;;;6.45;3.40;;;;;;;18.57;95.93;92279.28;5033886;28;20027;-79
2022/08/19 10:33:58;;;;;;;4.47;2.65;;;;;;;18.58;97.14;92265.69;5051948;28;20399;-79
2022/08/19 10:36:28;;;;;;;5.60;2.70;;;;;;;18.55;96.63;92266.34;5050307;28;20036;-75
2022/08/19 10:38:58;;;;;;;6.70;2.45;;;;;;;18.67;96.20;92262.88;5040349;28;20113;-75
2022/08/19 10:41:27;;;;;;;5.07;2.05;;;;;;;18.77;93.83;92267.69;5040200;28;20047;-76
2022/08/19 10:43:56;;;;;;;5.93;2.08;;;;;;;18.80;94.97;92256.41;5037599;28;20025;-77
2022/08/19 10:46:23;;;;;;;6.03;2.13;;;;;;;18.77;94.46;92254.44;5040304;28;20041;-76
2022/08/19 10:48:49;;;;;;;7.22;1.85;;;;;;;18.81;92.01;92260.59;5031222;28;20080;-76
2022/08/19 10:54:02;;;;;;;5.90;1.85;;;;;;;18.42;94.81;92262.25;5050652;28;20045;-75
2022/08/19 10:59:14;;;;;;;5.93;3.00;;;;;;;18.62;98.45;92255.16;5042426;28;20067;-78
2022/08/19 11:01:41;;;;;;;7.55;2.90;;;;;;;18.48;99.60;92251.03;5035126;28;20122;-78
2022/08/19 11:04:09;;;;;;;4.75;2.75;;;;;;;18.43;99.16;92264.53;5052861;28;20036;-79
2022/08/19 11:06:37;;;;;;;6.93;2.30;;;;;;;18.49;94.83;92257.13;5017224;28;20025;-78
2022/08/19 11:09:03;;;;;;;4.10;1.98;;;;;;;18.53;93.94;92265.94;5050602;28;20059;-79
2022/08/19 11:11:28;;;;;;;6.20;3.00;;;;;;;18.59;97.05;92264.56;5055592;28;20037;-79
2022/08/19 11:13:54;;;;;;;5.53;2.10;;;;;;;18.66;93.82;92266.63;5051902;28;20108;-79
2022/08/19 11:16:23;;;;;;;5.82;1.85;;;;;;;18.60;90.71;92257.38;5033155;28;20047;-79
2022/08/19 11:18:54;;;;;;;4.95;1.80;;;;;;;18.64;93.68;92255.59;5040513;28;20040;-79
2022/08/19 11:21:31;;;;;;;4.88;2.30;;;;;;;18.60;93.41;92260.03;5053389;28;20037;-79
2022/08/19 11:24:00;;;;;;;6.30;2.20;;;;;;;18.45;96.42;92262.31;5051378;28;20178;-79
2022/08/19 11:26:27;;;;;;;5.63;2.70;;;;;;;18.50;96.48;92259.41;5033087;28;20344;-77
2022/08/19 11:28:56;;;;;;;5.00;2.13;;;;;;;18.60;94.43;92262.69;5034496;28;20073;-79
2022/08/19 11:31:25;;;;;;;6.20;2.00;;;;;;;18.55;93.64;92268.25;5046534;28;20042;-80
2022/08/19 11:33:52;;;;;;;6.78;1.70;;;;;;;18.45;90.61;92264.22;5051482;28;20029;-79
2022/08/19 11:36:20;;;;;;;2.70;1.38;;;;;;;18.29;90.21;92272.13;5028340;28;20458;-78
2022/08/19 11:38:48;;;;;;;3.35;1.55;;;;;;;18.32;91.09;92274.09;5044049;28;20578;-78
2022/08/19 11:41:17;;;;;;;2.63;1.02;;;;;;;18.40;83.88;92265.22;5051728;28;20087;-79
2022/08/19 11:43:43;;;;;;;3.13;1.13;;;;;;;18.52;84.17;92261.75;5033695;28;20060;-78
2022/08/19 11:46:12;;;;;;;3.03;0.90;;;;;;;18.62;82.09;92253.28;5051271;28;20533;-79
2022/08/19 11:48:39;;;;;;;2.58;1.50;;;;;;;18.64;82.21;92247.63;5051997;28;20086;-79
2022/08/19 11:51:10;;;;;;;1.90;0.82;;;;;;;18.62;81.01;92255.16;5052367;28;20386;-79
2022/08/19 11:53:37;;;;;;;4.00;0.93;;;;;;;18.56;80.40;92245.94;5052494;28;20036;-79
2022/08/19 11:56:04;;;;;;;1.92;0.90;;;;;;;18.60;82.40;92257.38;5051709;28;20363;-79
2022/08/19 11:58:29;;;;;;;1.85;0.90;;;;;;;18.64;80.92;92252.94;5052276;28;20025;-78
2022/08/19 12:00:55;;;;;;;1.98;0.77;;;;;;;18.51;81.63;92247.72;5050903;28;20572;-79
2022/08/19 12:03:32;;;;;;;1.65;0.80;;;;;;;18.54;80.43;92248.16;5052477;28;20128;-79
2022/08/19 12:05:57;;;;;;;3.78;1.00;;;;;;;18.53;83.49;92244.75;5034857;28;20051;-79
2022/08/19 12:08:23;;;;;;;1.73;0.80;;;;;;;18.53;82.96;92231.50;5052780;28;20112;-78
2022/08/19 12:10:50;;;;;;;1.40;0.77;;;;;;;18.54;83.83;92237.56;5034498;28;20095;-78
2022/08/19 12:13:18;;;;;;;1.42;0.70;;;;;;;18.59;84.52;92240.72;5052968;28;20037;-79
2022/08/19 12:15:46;;;;;;;3.90;1.00;;;;;;;18.62;85.53;92239.25;5034529;28;20036;-77
2022/08/19 12:18:30;;;;;;;1.77;0.90;;;;;;;18.56;89.36;92233.44;5052541;28;20017;-77
2022/08/19 12:20:56;;;;;;;3.65;1.10;;;;;;;18.52;91.09;92233.34;5054955;28;20037;-77
2022/08/19 12:23:22;;;;;;;1.85;1.00;;;;;;;18.62;93.79;92224.13;5058729;28;20116;-77
2022/08/19 12:25:52;;;;;;;3.22;0.90;;;;;;;18.66;91.24;92221.56;5049296;28;20049;-77
2022/08/19 12:28:22;;;;;;;1.15;0.75;;;;;;;18.80;89.38;92213.19;5015957;28;20387;-78
2022/08/19 12:30:51;;;;;;;1.13;0.68;;;;;;;18.77;85.96;92205.91;5043515;28;20351;-77
2022/08/19 12:33:18;;;;;;;1.15;0.70;;;;;;;18.89;87.92;92205.84;5016786;28;20507;-78
2022/08/19 12:35:46;;;;;;;2.38;1.00;;;;;;;19.02;88.96;92214.47;5034329;28;20057;-77